Time;durP1;ratioP1;P1;durP2;ratioP2;P2;SDS_P1;SDS_P2;PMS_P1;PMS_P2;Temp;Humidity;BMP_temperature;BMP_pressure;BME280_temperature;BME280_humidity;BME280_pressure;Samples;Min_cycle;Max_cycle;Signal;HPM_P1;HPM_P2
2022/01/22 00:00:31;;;;;;;5.57;3.70;;;4.40;99.90;;;;;;5083406;28;20473;-69
2022/01/22 00:02:57;;;;;;;6.37;3.90;;;4.40;99.90;;;;;;5069942;28;20258;-69
2022/01/22 00:05:41;;;;;;;3.47;2.93;;;4.40;99.90;;;;;;5071558;28;20294;-68
2022/01/22 00:08:13;;;;;;;4.17;3.17;;;4.40;99.90;;;;;;5070166;28;20273;-70
2022/01/22 00:10:44;;;;;;;4.97;3.97;;;4.30;99.90;;;;;;5071069;28;20464;-69
2022/01/22 00:15:46;;;;;;;4.63;3.67;;;4.30;99.90;;;;;;5069484;28;20843;-69
2022/01/22 00:18:12;;;;;;;5.20;3.77;;;4.30;99.90;;;;;;5069991;28;20515;-69
2022/01/22 00:20:38;;;;;;;6.50;4.43;;;4.30;99.90;;;;;;5071416;28;20468;-70
2022/01/22 00:23:04;;;;;;;6.27;4.00;;;4.40;99.90;;;;;;5070753;28;20437;-68
2022/01/22 00:25:30;;;;;;;11.93;3.60;;;4.40;99.90;;;;;;5069753;28;20457;-69
2022/01/22 00:27:56;;;;;;;4.27;3.87;;;4.30;99.90;;;;;;5070834;28;20461;-69
2022/01/22 00:30:24;;;;;;;3.27;2.97;;;4.30;99.90;;;;;;5071124;28;20598;-69
2022/01/22 00:32:51;;;;;;;6.63;3.60;;;4.30;99.90;;;;;;5070790;28;20223;-70
2022/01/22 00:35:18;;;;;;;8.40;3.63;;;4.30;99.90;;;;;;5071132;28;20457;-69
2022/01/22 00:37:47;;;;;;;3.80;2.70;;;4.40;99.90;;;;;;5068925;28;21027;-70
2022/01/22 00:40:15;;;;;;;2.57;2.37;;;4.30;99.90;;;;;;5069584;28;20449;-69
2022/01/22 00:42:45;;;;;;;4.20;3.00;;;4.30;99.90;;;;;;5071155;28;20836;-69
2022/01/22 00:45:11;;;;;;;3.90;3.23;;;4.40;99.90;;;;;;5069357;28;20477;-69
2022/01/22 00:47:38;;;;;;;9.00;4.33;;;4.40;99.90;;;;;;5070514;28;20489;-69
2022/01/22 00:50:06;;;;;;;4.30;3.30;;;4.30;99.90;;;;;;5068253;28;20477;-69
2022/01/22 00:52:32;;;;;;;4.57;3.57;;;4.40;99.90;;;;;;5052718;28;20818;-69
2022/01/22 00:54:57;;;;;;;5.93;3.47;;;4.30;99.90;;;;;;5068563;28;20507;-69
2022/01/22 00:57:23;;;;;;;8.20;3.30;;;4.40;99.90;;;;;;5052285;28;20277;-69
2022/01/22 00:59:49;;;;;;;6.73;3.77;;;4.40;99.90;;;;;;5077714;28;20222;-69
2022/01/22 01:02:15;;;;;;;4.83;3.33;;;4.40;99.90;;;;;;5052073;28;20216;-70
2022/01/22 01:04:41;;;;;;;6.30;4.00;;;4.40;99.90;;;;;;5032313;28;20567;-69
2022/01/22 01:07:06;;;;;;;7.30;4.57;;;4.40;99.90;;;;;;5031853;28;20220;-69
2022/01/22 01:09:34;;;;;;;7.63;4.00;;;4.40;99.90;;;;;;5049248;28;20223;-69
2022/01/22 01:12:01;;;;;;;7.47;4.17;;;4.40;99.90;;;;;;5032415;28;20216;-69
2022/01/22 01:14:38;;;;;;;12.03;5.47;;;4.40;99.90;;;;;;5048891;28;21047;-69
2022/01/22 01:36:14;;;;;;;10.57;4.30;;;4.40;99.90;;;;;;5007521;28;20468;-70
2022/01/22 01:38:44;;;;;;;8.63;4.23;;;4.40;99.90;;;;;;5035194;28;20443;-70
2022/01/22 01:41:21;;;;;;;7.73;5.60;;;4.40;99.90;;;;;;5052030;28;20954;-70
2022/01/22 01:43:46;;;;;;;8.20;4.43;;;4.40;99.90;;;;;;5033996;28;20495;-70
2022/01/22 01:46:53;;;;;;;6.60;5.00;;;4.40;99.90;;;;;;5045354;28;20470;-70
2022/01/22 01:49:19;;;;;;;9.63;5.57;;;4.40;99.90;;;;;;5068041;28;20486;-68
2022/01/22 01:51:46;;;;;;;7.27;4.60;;;4.40;99.90;;;;;;5067490;28;20465;-69
2022/01/22 01:59:41;;;;;;;11.00;4.97;;;4.50;99.90;;;;;;5077465;28;20469;-69
2022/01/22 02:02:09;;;;;;;7.83;4.53;;;4.50;99.90;;;;;;5031259;28;20519;-70
2022/01/22 02:04:35;;;;;;;7.73;5.37;;;4.50;99.90;;;;;;5015808;28;20467;-69
2022/01/22 02:07:01;;;;;;;4.23;3.83;;;4.50;99.90;;;;;;5029527;28;20455;-69
2022/01/22 02:09:31;;;;;;;6.57;4.00;;;4.50;99.90;;;;;;5031585;28;21045;-69
2022/01/22 02:12:14;;;;;;;5.50;4.23;;;4.50;99.90;;;;;;5031524;28;20451;-70
2022/01/22 02:23:37;;;;;;;5.47;3.63;;;4.60;99.90;;;;;;5037806;28;21087;-69
2022/01/22 02:26:07;;;;;;;7.67;4.70;;;4.60;99.90;;;;;;5042964;28;20449;-71
2022/01/22 02:28:39;;;;;;;4.47;3.30;;;4.50;99.90;;;;;;5036681;28;20457;-69
2022/01/22 02:31:15;;;;;;;;;;;;;;;;;;;;;
2022/01/22 02:33:51;;;;;;;5.67;4.13;;;4.60;99.90;;;;;;5052213;28;20460;-69
2022/01/22 02:36:25;;;;;;;5.43;3.63;;;4.60;99.90;;;;;;5055232;28;20546;-69
2022/01/22 02:39:02;;;;;;;3.37;3.00;;;4.60;99.90;;;;;;5071713;28;20449;-69
2022/01/22 02:41:28;;;;;;;6.63;3.70;;;4.50;99.90;;;;;;5046379;28;20846;-70
2022/01/22 02:43:55;;;;;;;3.77;3.00;;;4.50;99.90;;;;;;5051815;28;20454;-70
2022/01/22 02:46:25;;;;;;;3.57;3.17;;;4.50;99.90;;;;;;5047211;28;20452;-70
2022/01/22 02:48:54;;;;;;;10.20;3.20;;;4.50;99.90;;;;;;5060107;28;20443;-69
2022/01/22 02:51:20;;;;;;;5.07;3.47;;;4.50;99.90;;;;;;5049081;28;21028;-70
2022/01/22 02:53:53;;;;;;;5.93;4.07;;;4.50;99.90;;;;;;5033690;28;20938;-70
2022/01/22 02:56:20;;;;;;;11.67;3.90;;;4.50;99.90;;;;;;5049203;28;20454;-68
2022/01/22 02:58:47;;;;;;;5.77;4.10;;;4.50;99.90;;;;;;5035077;28;20549;-70
2022/01/22 03:01:16;;;;;;;9.40;4.30;;;4.40;99.90;;;;;;5055748;28;20493;-69
2022/01/22 03:03:42;;;;;;;6.60;3.40;;;4.40;99.90;;;;;;5055009;28;20286;-69
2022/01/22 03:06:09;;;;;;;8.23;4.43;;;4.40;99.90;;;;;;5062694;28;20449;-70
2022/01/22 03:08:35;;;;;;;5.63;3.53;;;4.40;99.90;;;;;;5063250;28;20455;-70
2022/01/22 03:11:05;;;;;;;6.57;3.73;;;4.40;99.90;;;;;;5052248;28;20469;-69
2022/01/22 03:21:32;;;;;;;5.17;4.07;;;4.30;99.90;;;;;;5039487;28;20451;-70
2022/01/22 03:29:33;;;;;;;4.10;3.70;;;4.30;99.90;;;;;;5051517;28;20462;-68
2022/01/22 03:32:00;;;;;;;5.40;3.40;;;4.30;99.90;;;;;;5050943;28;20935;-69
2022/01/22 03:34:36;;;;;;;7.27;3.40;;;4.30;99.90;;;;;;5035012;28;20984;-70
2022/01/22 03:37:02;;;;;;;6.50;3.90;;;4.40;99.90;;;;;;5091280;28;20235;-70
2022/01/22 03:39:28;;;;;;;5.40;3.97;;;4.40;99.90;;;;;;5052172;28;20457;-69
2022/01/22 03:41:54;;;;;;;6.10;2.90;;;4.40;99.90;;;;;;5044999;28;20451;-70
2022/01/22 03:44:20;;;;;;;2.97;2.77;;;4.30;99.90;;;;;;5048923;28;20219;-70
2022/01/22 03:46:49;;;;;;;5.60;3.30;;;4.30;99.90;;;;;;5083880;28;20585;-70
2022/01/22 03:49:16;;;;;;;5.53;3.37;;;4.30;99.90;;;;;;5059462;28;20846;-70
2022/01/22 03:51:43;;;;;;;6.57;4.07;;;4.30;99.90;;;;;;5059363;28;20449;-70
2022/01/22 03:54:09;;;;;;;4.90;3.27;;;4.30;99.90;;;;;;5047512;28;20443;-69
2022/01/22 03:56:37;;;;;;;5.67;3.93;;;4.40;99.90;;;;;;5051757;28;20474;-70
2022/01/22 03:59:23;;;;;;;5.87;3.70;;;4.40;99.90;;;;;;5068483;28;20489;-70
2022/01/22 04:04:42;;;;;;;6.67;4.60;;;4.40;99.90;;;;;;5051011;28;20531;-70
2022/01/22 04:10:07;;;;;;;6.80;4.60;;;4.30;99.90;;;;;;5051155;28;20482;-69
2022/01/22 04:13:00;;;;;;;12.93;4.23;;;4.30;99.90;;;;;;5050454;28;20454;-70
2022/01/22 04:15:24;;;;;;;5.40;3.80;;;4.30;99.90;;;;;;5051150;28;20446;-68
2022/01/22 04:26:34;;;;;;;5.30;3.93;;;4.30;99.90;;;;;;5058044;28;20522;-70
2022/01/22 04:29:00;;;;;;;5.97;4.07;;;4.30;99.90;;;;;;5049548;28;20481;-70
2022/01/22 04:31:26;;;;;;;6.93;4.13;;;4.30;99.90;;;;;;5050334;28;20960;-70
2022/01/22 04:33:51;;;;;;;7.77;4.53;;;4.20;99.90;;;;;;5032601;28;20350;-69
2022/01/22 04:36:28;;;;;;;6.30;4.50;;;4.30;99.90;;;;;;5055431;28;20219;-69
2022/01/22 04:38:54;;;;;;;7.53;4.63;;;4.20;99.90;;;;;;5049065;28;20511;-70
2022/01/22 04:41:21;;;;;;;7.87;4.83;;;4.20;99.90;;;;;;5083686;28;20442;-69
2022/01/22 04:43:46;;;;;;;8.97;4.60;;;4.20;99.90;;;;;;5049435;28;20541;-70
2022/01/22 04:46:34;;;;;;;7.60;4.13;;;4.20;99.90;;;;;;5079015;28;20521;-69
2022/01/22 04:57:15;;;;;;;6.27;4.27;;;4.10;99.90;;;;;;5068816;28;20528;-70
2022/01/22 04:59:40;;;;;;;6.17;4.80;;;4.10;99.90;;;;;;5066791;28;20473;-70
2022/01/22 05:02:15;;;;;;;6.37;3.97;;;4.10;99.90;;;;;;5069771;28;20450;-69
2022/01/22 05:04:47;;;;;;;7.23;4.30;;;4.10;99.90;;;;;;5033573;28;20224;-69
2022/01/22 05:07:25;;;;;;;5.53;3.97;;;4.20;99.90;;;;;;5049553;28;20457;-69
2022/01/22 05:09:56;;;;;;;9.70;4.47;;;4.20;99.90;;;;;;5050279;28;20454;-69
2022/01/22 05:12:22;;;;;;;7.50;4.60;;;4.20;99.90;;;;;;5049359;28;20972;-70
2022/01/22 05:14:48;;;;;;;6.00;4.27;;;4.20;99.90;;;;;;5032205;28;20234;-70
2022/01/22 05:17:14;;;;;;;6.10;4.53;;;4.20;99.90;;;;;;5042836;28;20224;-69
2022/01/22 05:19:58;;;;;;;5.20;3.90;;;4.20;99.90;;;;;;5068715;28;20460;-70
2022/01/22 05:25:14;;;;;;;7.40;4.50;;;4.20;99.90;;;;;;5063439;28;20450;-67
2022/01/22 05:30:59;;;;;;;10.23;5.50;;;4.20;99.90;;;;;;5004235;28;20454;-70
2022/01/22 05:39:30;;;;;;;6.80;4.10;;;4.20;99.90;;;;;;5060581;28;20453;-69
2022/01/22 05:42:00;;;;;;;7.00;3.80;;;4.30;99.90;;;;;;5057522;28;20506;-69
2022/01/22 05:44:27;;;;;;;2.73;2.33;;;4.30;99.90;;;;;;5054657;28;20502;-69
2022/01/22 05:46:57;;;;;;;6.43;3.90;;;4.30;99.90;;;;;;5050017;28;20516;-69
2022/01/22 05:49:25;;;;;;;3.73;2.70;;;4.30;99.90;;;;;;5049170;28;20458;-70
2022/01/22 05:51:53;;;;;;;3.97;3.20;;;4.30;99.90;;;;;;5049933;28;20516;-68
2022/01/22 05:54:46;;;;;;;5.87;4.10;;;4.30;99.90;;;;;;5032390;28;21047;-68
2022/01/22 05:59:49;;;;;;;4.80;3.13;;;4.30;99.90;;;;;;5048894;28;20447;-69
2022/01/22 06:02:17;;;;;;;3.57;3.27;;;4.30;99.90;;;;;;5051801;28;20462;-71
2022/01/22 06:04:49;;;;;;;5.07;2.97;;;4.30;99.90;;;;;;5048398;28;20227;-69
2022/01/22 06:07:17;;;;;;;5.03;3.10;;;4.30;99.90;;;;;;5048392;28;20531;-70
2022/01/22 06:09:55;;;;;;;3.03;2.40;;;4.30;99.90;;;;;;5047630;28;20971;-70
2022/01/22 06:12:40;;;;;;;3.40;3.10;;;4.30;99.90;;;;;;5043022;28;20800;-70
2022/01/22 06:15:06;;;;;;;3.33;2.70;;;4.40;99.90;;;;;;5031672;28;20443;-69
2022/01/22 06:17:40;;;;;;;3.73;2.87;;;4.40;99.90;;;;;;5032801;28;20463;-70
2022/01/22 06:20:12;;;;;;;3.80;3.20;;;4.40;99.90;;;;;;5047567;28;20453;-70
2022/01/22 06:22:40;;;;;;;3.73;3.30;;;4.40;99.90;;;;;;5042151;28;20873;-70
2022/01/22 06:25:08;;;;;;;3.63;3.20;;;4.40;99.90;;;;;;5047076;28;20457;-69
2022/01/22 06:27:34;;;;;;;6.90;3.40;;;4.40;99.90;;;;;;5055188;28;20450;-70
2022/01/22 06:30:00;;;;;;;3.20;2.90;;;4.40;99.90;;;;;;5047316;28;20447;-68
2022/01/22 06:32:26;;;;;;;4.83;2.90;;;4.40;99.90;;;;;;5028503;28;20463;-70
2022/01/22 06:34:52;;;;;;;10.70;3.60;;;4.40;99.90;;;;;;5031674;28;20466;-70
2022/01/22 06:37:18;;;;;;;5.13;3.50;;;4.40;99.90;;;;;;5048680;28;20239;-70
2022/01/22 06:43:08;;;;;;;3.07;2.77;;;4.40;99.90;;;;;;5066118;28;20881;-69
2022/01/22 06:45:54;;;;;;;4.87;2.90;;;4.40;99.90;;;;;;5055519;28;20449;-68
2022/01/22 06:48:20;;;;;;;4.30;3.37;;;4.40;99.90;;;;;;5068744;28;20525;-70
2022/01/22 06:51:05;;;;;;;3.17;2.90;;;4.40;99.90;;;;;;5069410;28;20233;-69
2022/01/22 06:53:35;;;;;;;3.20;2.90;;;4.40;99.90;;;;;;5071633;28;20452;-69
2022/01/22 06:56:03;;;;;;;2.43;2.23;;;4.40;99.90;;;;;;5054063;28;20450;-70
2022/01/22 06:58:49;;;;;;;4.03;3.07;;;4.40;99.90;;;;;;5065936;28;20511;-70
2022/01/22 07:01:15;;;;;;;3.40;2.70;;;4.50;99.90;;;;;;5066753;28;20466;-69
2022/01/22 07:03:53;;;;;;;3.40;2.70;;;4.50;99.90;;;;;;5062433;28;20211;-69
2022/01/22 07:06:30;;;;;;;3.63;3.10;;;4.50;99.90;;;;;;5068986;28;20489;-70
2022/01/22 07:08:56;;;;;;;3.13;2.70;;;4.50;99.90;;;;;;5071111;28;20819;-70
2022/01/22 07:11:21;;;;;;;3.93;2.90;;;4.50;99.90;;;;;;5055171;28;20254;-70
2022/01/22 07:13:49;;;;;;;3.47;2.80;;;4.50;99.90;;;;;;5071246;28;20222;-69
2022/01/22 07:16:15;;;;;;;3.70;2.77;;;4.50;99.90;;;;;;5070758;28;20549;-69
2022/01/22 07:18:41;;;;;;;3.33;2.57;;;4.50;99.90;;;;;;5055085;28;20218;-70
2022/01/22 07:21:16;;;;;;;5.03;2.50;;;4.50;99.90;;;;;;5054350;28;20538;-69
2022/01/22 07:26:26;;;;;;;3.10;2.90;;;4.50;99.90;;;;;;5070373;28;20514;-69
2022/01/22 07:28:58;;;;;;;4.93;3.30;;;4.50;99.90;;;;;;5053000;28;20465;-70
2022/01/22 07:31:26;;;;;;;4.40;3.13;;;4.50;99.90;;;;;;5035216;28;20456;-70
2022/01/22 07:33:53;;;;;;;5.23;3.60;;;4.50;99.90;;;;;;5050650;28;20477;-70
2022/01/22 07:36:19;;;;;;;6.00;3.27;;;4.50;99.90;;;;;;5031413;28;20467;-69
2022/01/22 07:38:46;;;;;;;4.10;2.93;;;4.50;99.90;;;;;;5050452;28;20228;-70
2022/01/22 07:41:12;;;;;;;3.37;2.80;;;4.50;99.90;;;;;;5034956;28;20501;-70
2022/01/22 07:43:44;;;;;;;3.07;2.70;;;4.50;99.90;;;;;;5066201;28;20478;-71
2022/01/22 07:46:19;;;;;;;2.27;2.00;;;4.50;99.90;;;;;;5051594;28;20454;-69
2022/01/22 07:48:53;;;;;;;4.77;3.30;;;4.50;99.90;;;;;;5065288;28;20451;-71
2022/01/22 07:51:32;;;;;;;4.37;2.83;;;4.50;99.90;;;;;;5067972;28;20454;-70
2022/01/22 07:54:00;;;;;;;4.03;3.40;;;4.50;99.90;;;;;;5033595;28;20936;-70
2022/01/22 07:56:28;;;;;;;13.63;3.67;;;4.50;99.90;;;;;;5032414;28;20458;-70
2022/01/22 07:58:56;;;;;;;6.90;3.50;;;4.50;99.90;;;;;;5054494;28;20479;-69
2022/01/22 08:01:22;;;;;;;3.30;2.47;;;4.50;99.90;;;;;;5057636;28;20235;-70
2022/01/22 08:04:06;;;;;;;4.87;3.33;;;4.50;99.90;;;;;;5057593;28;20444;-68
2022/01/22 08:07:03;;;;;;;6.83;2.73;;;4.50;99.90;;;;;;5049266;28;20459;-70
2022/01/22 08:09:41;;;;;;;4.60;3.40;;;4.50;99.90;;;;;;5045788;28;20473;-69
2022/01/22 08:12:33;;;;;;;4.33;3.00;;;4.50;99.90;;;;;;5060984;28;20874;-70
2022/01/22 08:15:07;;;;;;;4.37;3.67;;;4.50;99.90;;;;;;5063151;28;20826;-71
2022/01/22 08:17:33;;;;;;;4.17;2.80;;;4.50;99.90;;;;;;5065178;28;20466;-69
2022/01/22 08:19:59;;;;;;;6.37;3.50;;;4.50;99.90;;;;;;5064906;28;20472;-69
2022/01/22 08:22:44;;;;;;;3.80;2.53;;;4.50;99.90;;;;;;5064027;28;20269;-69
2022/01/22 08:25:30;;;;;;;6.77;3.77;;;4.50;99.90;;;;;;5060503;28;20912;-69
2022/01/22 08:30:36;;;;;;;4.93;3.50;;;4.60;99.90;;;;;;5066849;28;20478;-69
2022/01/22 08:35:52;;;;;;;7.27;4.20;;;4.60;99.90;;;;;;5060829;28;20532;-69
2022/01/22 08:38:19;;;;;;;5.17;3.90;;;4.60;99.90;;;;;;5046822;28;20549;-69
2022/01/22 08:40:45;;;;;;;7.90;4.40;;;4.60;99.90;;;;;;5045762;28;20497;-71
2022/01/22 08:43:11;;;;;;;5.97;3.77;;;4.60;99.90;;;;;;5065822;28;20477;-70
2022/01/22 08:45:36;;;;;;;4.80;4.07;;;4.60;99.90;;;;;;5061726;28;20218;-70
2022/01/22 08:48:04;;;;;;;8.00;3.70;;;4.60;99.90;;;;;;5046248;28;20220;-70
2022/01/22 08:50:33;;;;;;;7.63;3.77;;;4.60;99.90;;;;;;5047972;28;20492;-69
2022/01/22 08:52:59;;;;;;;5.87;4.10;;;4.70;99.90;;;;;;5064529;28;20453;-69
2022/01/22 08:55:25;;;;;;;6.90;3.83;;;4.70;99.90;;;;;;5061530;28;20458;-69
2022/01/22 08:57:52;;;;;;;6.77;4.40;;;4.70;99.90;;;;;;5061619;28;20465;-69
2022/01/22 09:00:39;;;;;;;6.90;3.60;;;4.70;99.90;;;;;;5059455;28;20477;-70
2022/01/22 09:03:15;;;;;;;2.90;2.53;;;4.70;99.90;;;;;;5063184;28;20449;-68
2022/01/22 09:06:01;;;;;;;3.90;3.10;;;4.70;99.90;;;;;;5064687;28;20483;-69
2022/01/22 09:08:27;;;;;;;4.73;3.03;;;4.70;99.90;;;;;;5064003;28;20461;-70
2022/01/22 09:11:06;;;;;;;7.83;3.17;;;4.80;99.90;;;;;;5062842;28;20473;-69
2022/01/22 09:13:50;;;;;;;4.57;3.30;;;4.80;99.90;;;;;;5065073;28;20506;-69
2022/01/22 09:16:20;;;;;;;5.43;3.23;;;4.80;99.90;;;;;;5062561;28;20454;-69
2022/01/22 09:18:46;;;;;;;6.17;3.83;;;4.80;99.90;;;;;;5048051;28;20511;-71
2022/01/22 09:21:12;;;;;;;3.90;2.83;;;4.80;99.90;;;;;;5061794;28;20298;-70
2022/01/22 09:23:37;;;;;;;6.20;3.87;;;4.80;99.90;;;;;;5062614;28;20667;-69
2022/01/22 09:26:11;;;;;;;4.40;2.90;;;4.80;99.90;;;;;;5062898;28;20211;-69
2022/01/22 09:28:38;;;;;;;3.90;2.83;;;4.90;99.90;;;;;;5060661;28;20501;-69
2022/01/22 09:31:04;;;;;;;5.63;3.80;;;4.90;99.90;;;;;;5061966;28;20454;-70
2022/01/22 09:33:30;;;;;;;6.57;4.13;;;4.90;99.90;;;;;;5045569;28;20473;-70
2022/01/22 09:36:06;;;;;;;4.90;3.57;;;4.90;99.90;;;;;;5059456;28;20459;-69
2022/01/22 09:38:51;;;;;;;4.20;3.30;;;5.00;99.90;;;;;;5061539;28;20464;-70
2022/01/22 09:41:38;;;;;;;5.10;3.83;;;5.00;99.90;;;;;;5062455;28;20468;-70
2022/01/22 09:44:27;;;;;;;6.03;3.90;;;5.10;99.90;;;;;;5052122;28;20461;-70
2022/01/22 09:47:19;;;;;;;5.70;3.20;;;5.10;99.90;;;;;;5057078;28;20892;-70
2022/01/22 09:50:05;;;;;;;4.40;3.20;;;5.10;99.90;;;;;;5062380;28;20980;-69
2022/01/22 09:52:57;;;;;;;5.60;3.60;;;5.10;99.90;;;;;;5037011;28;20601;-69
2022/01/22 09:55:42;;;;;;;4.83;3.50;;;5.10;99.90;;;;;;5062219;28;20488;-69
2022/01/22 09:58:17;;;;;;;5.97;3.57;;;5.20;99.90;;;;;;5061373;28;20460;-69
2022/01/22 10:01:22;;;;;;;5.53;3.43;;;5.20;99.90;;;;;;5010675;28;20896;-69
2022/01/22 10:03:51;;;;;;;16.77;10.90;;;5.20;99.90;;;;;;5048055;28;20540;-70
2022/01/22 10:06:28;;;;;;;18.93;11.73;;;5.20;99.90;;;;;;5035928;28;20461;-70
2022/01/22 10:09:46;;;;;;;15.50;7.60;;;5.20;99.90;;;;;;5044720;28;20969;-70
2022/01/22 10:12:48;;;;;;;13.50;7.33;;;5.30;99.90;;;;;;5036011;28;20456;-69
2022/01/22 10:15:14;;;;;;;11.50;5.27;;;5.30;99.90;;;;;;5045168;28;20995;-69
2022/01/22 10:17:55;;;;;;;10.17;5.70;;;5.30;99.90;;;;;;5039911;28;20474;-71
2022/01/22 10:20:24;;;;;;;6.20;4.60;;;5.30;99.90;;;;;;5063381;28;20217;-69
2022/01/22 10:22:53;;;;;;;4.17;3.40;;;5.40;99.90;;;;;;5061076;28;20454;-70
2022/01/22 10:25:31;;;;;;;5.03;4.03;;;5.40;99.90;;;;;;5062684;28;20453;-69
2022/01/22 10:28:20;;;;;;;4.87;3.63;;;5.40;99.90;;;;;;5065720;28;20844;-71
2022/01/22 10:30:47;;;;;;;7.60;3.90;;;5.40;99.90;;;;;;5063137;28;20465;-70
2022/01/22 10:33:24;;;;;;;9.40;6.37;;;5.40;99.90;;;;;;5051386;28;20466;-69
2022/01/22 10:36:25;;;;;;;14.57;8.57;;;5.50;99.90;;;;;;4986096;28;20467;-69
2022/01/22 10:39:24;;;;;;;23.13;10.80;;;5.50;99.90;;;;;;5054244;28;20445;-70
2022/01/22 10:41:50;;;;;;;21.37;12.23;;;5.50;99.90;;;;;;5067107;28;20461;-70
2022/01/22 10:44:21;;;;;;;22.57;12.70;;;5.50;99.90;;;;;;5050536;28;20446;-69
2022/01/22 10:46:51;;;;;;;25.20;13.23;;;5.50;99.90;;;;;;5062838;28;20493;-70
2022/01/22 10:49:24;;;;;;;14.00;8.83;;;5.50;99.90;;;;;;5067233;28;20537;-70
2022/01/22 10:51:53;;;;;;;10.63;7.20;;;5.50;99.90;;;;;;5064986;28;20524;-70
2022/01/22 10:54:24;;;;;;;8.80;5.90;;;5.50;99.90;;;;;;5065495;28;20460;-69
2022/01/22 10:56:52;;;;;;;10.07;6.50;;;5.50;99.90;;;;;;5062718;28;20476;-69
2022/01/22 10:59:22;;;;;;;8.83;5.90;;;5.50;99.90;;;;;;5046898;28;20506;-69
2022/01/22 11:01:48;;;;;;;7.80;6.50;;;5.50;99.90;;;;;;5041025;28;20460;-69
2022/01/22 11:04:15;;;;;;;8.00;6.70;;;5.50;99.90;;;;;;5042185;28;20450;-70
2022/01/22 11:06:50;;;;;;;8.03;6.87;;;5.50;99.90;;;;;;5055487;28;20223;-70
2022/01/22 11:09:16;;;;;;;14.00;9.90;;;5.60;99.90;;;;;;5053888;28;20479;-71
2022/01/22 11:11:43;;;;;;;25.30;17.70;;;5.60;99.90;;;;;;5044148;28;20442;-70
2022/01/22 11:14:10;;;;;;;27.93;16.70;;;5.60;99.90;;;;;;5045825;28;20431;-68
2022/01/22 11:16:41;;;;;;;11.80;9.47;;;5.60;99.90;;;;;;5047117;28;20462;-70
2022/01/22 11:19:11;;;;;;;26.60;18.10;;;5.60;99.90;;;;;;5032688;28;20477;-69
2022/01/22 11:21:40;;;;;;;21.07;14.97;;;5.60;99.90;;;;;;5042760;28;20473;-69
2022/01/22 11:24:09;;;;;;;18.87;12.50;;;5.60;99.90;;;;;;5044390;28;20446;-70
2022/01/22 11:26:38;;;;;;;13.00;7.57;;;5.60;99.90;;;;;;5050515;28;20504;-71
2022/01/22 11:29:05;;;;;;;9.43;6.33;;;5.70;99.90;;;;;;5050631;28;20458;-70
2022/01/22 11:31:33;;;;;;;9.33;5.40;;;5.70;99.90;;;;;;5054992;28;20843;-68
2022/01/22 11:34:00;;;;;;;8.30;5.00;;;5.70;99.90;;;;;;5037121;28;20463;-69
2022/01/22 11:36:37;;;;;;;7.70;4.73;;;5.70;99.90;;;;;;5048352;28;20457;-69
2022/01/22 11:39:04;;;;;;;6.27;4.50;;;5.70;99.90;;;;;;5042975;28;20455;-70
2022/01/22 11:41:30;;;;;;;5.50;4.27;;;5.70;99.90;;;;;;5043299;28;20458;-70
2022/01/22 11:44:03;;;;;;;5.67;3.70;;;5.70;99.90;;;;;;5042027;28;20879;-69
2022/01/22 11:46:35;;;;;;;4.97;3.03;;;5.70;99.90;;;;;;5050474;28;20226;-70
2022/01/22 11:49:22;;;;;;;4.57;3.20;;;5.80;99.90;;;;;;5039255;28;20498;-69
2022/01/22 11:52:11;;;;;;;4.77;3.30;;;5.80;99.90;;;;;;5031819;28;20451;-70
2022/01/22 11:55:08;;;;;;;5.10;3.47;;;5.80;99.90;;;;;;5037254;28;20462;-69
2022/01/22 11:57:35;;;;;;;5.27;3.27;;;5.80;99.90;;;;;;5067064;28;20466;-70
2022/01/22 12:00:19;;;;;;;5.40;3.37;;;5.80;99.90;;;;;;5066295;28;20465;-70
2022/01/22 12:03:05;;;;;;;5.03;3.90;;;5.90;99.90;;;;;;5061477;28;20475;-70
2022/01/22 12:05:31;;;;;;;4.60;4.17;;;5.90;99.90;;;;;;5064980;28;20512;-70
2022/01/22 12:08:01;;;;;;;6.83;4.33;;;5.90;99.90;;;;;;5063948;28;21057;-69
2022/01/22 12:10:41;;;;;;;35.67;21.57;;;5.90;99.90;;;;;;5063264;28;20236;-69
2022/01/22 12:16:11;;;;;;;30.73;15.87;;;5.90;99.90;;;;;;5065675;28;20991;-70
2022/01/22 12:18:43;;;;;;;13.70;9.07;;;5.90;99.90;;;;;;5041381;28;20470;-71
2022/01/22 12:21:32;;;;;;;14.40;9.30;;;6.00;99.90;;;;;;5069411;28;20503;-70
2022/01/22 12:23:58;;;;;;;12.97;7.83;;;6.00;99.90;;;;;;5038617;28;20444;-69
2022/01/22 12:26:39;;;;;;;13.00;8.00;;;6.00;99.90;;;;;;5065529;28;20467;-70
2022/01/22 12:29:34;;;;;;;10.10;6.33;;;6.00;99.90;;;;;;5061939;28;20458;-70
2022/01/22 12:32:20;;;;;;;37.87;20.33;;;6.10;99.90;;;;;;5064109;28;20463;-69
2022/01/22 12:35:00;;;;;;;80.27;40.03;;;6.10;99.90;;;;;;5064282;28;20449;-70
2022/01/22 12:37:29;;;;;;;78.73;35.30;;;6.10;99.90;;;;;;5070520;28;20572;-70
2022/01/22 12:39:56;;;;;;;50.33;27.10;;;6.00;99.90;;;;;;5070028;28;20492;-70
2022/01/22 12:42:45;;;;;;;44.50;25.93;;;6.10;99.90;;;;;;5061479;28;20522;-68
2022/01/22 12:45:11;;;;;;;30.93;18.03;;;6.10;99.90;;;;;;5025058;28;20451;-69
2022/01/22 12:47:44;;;;;;;20.70;12.00;;;6.10;99.90;;;;;;5055928;28;20530;-68
2022/01/22 12:50:10;;;;;;;15.83;9.27;;;6.10;99.90;;;;;;5055623;28;20298;-70
2022/01/22 12:52:37;;;;;;;11.67;8.47;;;6.10;99.90;;;;;;5029798;28;20491;-69
2022/01/22 12:55:23;;;;;;;15.80;9.63;;;6.10;99.90;;;;;;5042451;28;20230;-70
2022/01/22 12:57:49;;;;;;;14.40;8.50;;;6.10;99.90;;;;;;5053442;28;20508;-70
2022/01/22 13:00:18;;;;;;;12.53;7.57;;;6.10;99.90;;;;;;5055602;28;20510;-69
2022/01/22 13:02:49;;;;;;;10.70;8.33;;;6.10;99.90;;;;;;5045527;28;20455;-70
2022/01/22 13:05:17;;;;;;;12.33;8.50;;;6.10;99.90;;;;;;5054818;28;20447;-70
2022/01/22 13:08:06;;;;;;;7.80;5.70;;;6.10;99.90;;;;;;5025574;28;20447;-69
2022/01/22 13:10:53;;;;;;;9.50;6.27;;;6.10;99.90;;;;;;5045938;28;20462;-69
2022/01/22 13:13:19;;;;;;;8.83;5.83;;;6.10;99.90;;;;;;5064981;28;20486;-69
2022/01/22 13:15:45;;;;;;;6.77;4.73;;;6.20;99.90;;;;;;5061117;28;20574;-70
2022/01/22 13:18:11;;;;;;;7.53;5.20;;;6.20;99.90;;;;;;5060362;28;20314;-68
2022/01/22 13:20:37;;;;;;;31.80;12.23;;;6.20;99.90;;;;;;5030808;28;20223;-69
2022/01/22 13:23:16;;;;;;;55.80;19.50;;;6.20;99.90;;;;;;5049449;28;20219;-69
2022/01/22 13:25:42;;;;;;;33.40;15.47;;;6.20;99.90;;;;;;5028775;28;20236;-69
2022/01/22 13:28:11;;;;;;;53.50;21.67;;;6.20;99.90;;;;;;5044588;28;20474;-70
2022/01/22 13:30:57;;;;;;;56.60;25.10;;;6.20;99.90;;;;;;5048757;28;20291;-69
2022/01/22 13:33:32;;;;;;;54.43;23.50;;;6.20;99.90;;;;;;5032190;28;20450;-69
2022/01/22 13:49:34;;;;;;;6.20;3.77;;;6.30;99.90;;;;;;5062169;28;20462;-69
2022/01/22 13:52:03;;;;;;;6.40;3.97;;;6.30;99.90;;;;;;5061052;28;20458;-69
2022/01/22 13:54:51;;;;;;;4.93;2.83;;;6.30;99.90;;;;;;5057375;28;20478;-69
2022/01/22 13:57:25;;;;;;;4.67;3.00;;;6.30;99.90;;;;;;5049108;28;20497;-70
2022/01/22 13:59:53;;;;;;;5.33;2.83;;;6.30;99.90;;;;;;5023566;28;20991;-70
2022/01/22 14:04:54;;;;;;;4.37;2.70;;;6.30;99.90;;;;;;5040457;28;20480;-70
2022/01/22 14:07:27;;;;;;;1.80;1.60;;;6.30;99.90;;;;;;5053720;28;20447;-69
2022/01/22 14:09:52;;;;;;;3.07;2.30;;;6.30;99.90;;;;;;5046297;28;21026;-70
2022/01/22 14:12:18;;;;;;;4.20;2.70;;;6.30;99.90;;;;;;5029739;28;20545;-68
2022/01/22 14:15:09;;;;;;;7.20;4.10;;;6.30;99.90;;;;;;5046645;28;20235;-69
2022/01/22 14:17:51;;;;;;;5.20;3.27;;;6.30;99.90;;;;;;5069650;28;20226;-70
2022/01/22 14:20:22;;;;;;;6.10;3.20;;;6.30;99.90;;;;;;5063999;28;20605;-70
2022/01/22 14:23:20;;;;;;;3.40;2.57;;;6.30;99.90;;;;;;5056056;28;20455;-69
2022/01/22 14:25:57;;;;;;;3.23;2.50;;;6.30;99.90;;;;;;5023502;28;20460;-71
2022/01/22 14:28:55;;;;;;;3.63;2.53;;;6.30;99.90;;;;;;5028449;28;20834;-69
2022/01/22 14:31:34;;;;;;;4.07;2.70;;;6.30;99.90;;;;;;5054356;28;20974;-69
2022/01/22 14:34:10;;;;;;;3.60;2.80;;;6.30;99.90;;;;;;5030828;28;20488;-70
2022/01/22 14:36:44;;;;;;;3.83;1.87;;;6.40;99.90;;;;;;5055661;28;20462;-70
2022/01/22 14:44:45;;;;;;;2.50;2.27;;;6.40;99.90;;;;;;5040511;28;20811;-70
2022/01/22 14:47:19;;;;;;;3.10;1.93;;;6.40;99.90;;;;;;5047132;28;20538;-70
2022/01/22 14:50:00;;;;;;;8.53;2.30;;;6.30;99.90;;;;;;5047240;28;20450;-71
2022/01/22 14:52:26;;;;;;;4.33;2.20;;;6.30;99.90;;;;;;5046196;28;20847;-69
2022/01/22 14:54:54;;;;;;;4.50;2.50;;;6.40;99.90;;;;;;5038824;28;20503;-70
2022/01/22 14:57:22;;;;;;;3.07;2.03;;;6.40;99.90;;;;;;5040953;28;20837;-70
2022/01/22 14:59:49;;;;;;;3.83;2.37;;;6.40;99.90;;;;;;5064461;28;20480;-69
2022/01/22 15:02:15;;;;;;;2.40;2.17;;;6.40;99.90;;;;;;5049659;28;20473;-70
2022/01/22 15:04:43;;;;;;;3.07;2.77;;;6.40;99.90;;;;;;5046647;28;20988;-70
2022/01/22 15:07:12;;;;;;;2.60;2.03;;;6.40;99.90;;;;;;5049617;28;20455;-69
2022/01/22 15:09:40;;;;;;;2.60;2.30;;;6.40;99.90;;;;;;5041210;28;20470;-70
2022/01/22 15:12:08;;;;;;;3.67;2.40;;;6.40;99.90;;;;;;5051454;28;20462;-69
2022/01/22 15:14:34;;;;;;;3.20;2.13;;;6.50;99.90;;;;;;5048913;28;20462;-70
2022/01/22 15:19:37;;;;;;;2.37;2.17;;;6.50;99.90;;;;;;5053830;28;20542;-70
2022/01/22 15:22:06;;;;;;;2.37;2.07;;;6.50;99.90;;;;;;5046716;28;20454;-69
2022/01/22 15:24:31;;;;;;;8.87;2.73;;;6.50;99.90;;;;;;5026617;28;20461;-70
2022/01/22 15:26:57;;;;;;;20.00;12.27;;;6.50;99.90;;;;;;5053060;28;20458;-70